UAL1195 KLAX-KSFO
Flight info
| Callsign | UAL1195 |
|---|---|
| Flight time | 0h 58m |
| Altitude | 36000 |
| Route | SUMMR2 STOKD SERFR SERFR4 |
| Aircraft | A320/M-SDE3FGHIRWY/LB1 |
Departure
| Time | 2026-04-25 03:50 |
|---|---|
| Airport | Los Angeles International Airport (KLAX) |
Arrival
| Time | 2026-04-25 04:48 |
|---|---|
| Airport | San Francisco International Airport (KSFO) |
| Time | Latitude | Longitude | Altitude | Speed | Heading |
|---|---|---|---|---|---|
| 2026-04-25 03:21 | 33.94159 | -118.40022 | 95 ft | 0 kts | 90° |
| 2026-04-25 03:32 | 33.94159 | -118.40028 | 93 ft | 4 kts | 92° |
| 2026-04-25 03:33 | 33.94164 | -118.40059 | 93 ft | 4 kts | 116° |
| 2026-04-25 03:33 | 33.94179 | -118.40083 | 92 ft | 4 kts | 152° |
| 2026-04-25 03:33 | 33.94193 | -118.40090 | 92 ft | 0 kts | 173° |
| 2026-04-25 03:36 | 33.94179 | -118.40087 | 92 ft | 4 kts | 173° |
| 2026-04-25 03:36 | 33.94144 | -118.40083 | 93 ft | 5 kts | 174° |
| 2026-04-25 03:37 | 33.94133 | -118.40082 | 93 ft | 2 kts | 174° |
| 2026-04-25 03:37 | 33.94129 | -118.40081 | 95 ft | 0 kts | 174° |
| 2026-04-25 03:38 | 33.94128 | -118.40081 | 93 ft | 1 kts | 174° |
| 2026-04-25 03:38 | 33.94114 | -118.40079 | 95 ft | 3 kts | 173° |
| 2026-04-25 03:38 | 33.94084 | -118.40075 | 95 ft | 5 kts | 173° |
| 2026-04-25 03:39 | 33.94045 | -118.40069 | 95 ft | 5 kts | 173° |
| 2026-04-25 03:39 | 33.94044 | -118.40069 | 95 ft | 0 kts | 173° |
| 2026-04-25 03:39 | 33.94043 | -118.40068 | 95 ft | 1 kts | 173° |
| 2026-04-25 03:39 | 33.94007 | -118.40063 | 93 ft | 9 kts | 173° |
| 2026-04-25 03:40 | 33.93953 | -118.40104 | 94 ft | 12 kts | 255° |
| 2026-04-25 03:40 | 33.93938 | -118.40229 | 97 ft | 17 kts | 263° |
| 2026-04-25 03:40 | 33.93923 | -118.40380 | 94 ft | 20 kts | 263° |
| 2026-04-25 03:40 | 33.93907 | -118.40551 | 93 ft | 22 kts | 263° |
| 2026-04-25 03:41 | 33.93888 | -118.40726 | 93 ft | 20 kts | 263° |
| 2026-04-25 03:41 | 33.93870 | -118.40895 | 93 ft | 20 kts | 263° |
| 2026-04-25 03:41 | 33.93853 | -118.41061 | 94 ft | 20 kts | 262° |
| 2026-04-25 03:41 | 33.93905 | -118.41167 | 94 ft | 18 kts | 351° |
| 2026-04-25 03:42 | 33.94040 | -118.41186 | 96 ft | 21 kts | 353° |
| 2026-04-25 03:42 | 33.94192 | -118.41210 | 93 ft | 24 kts | 353° |
| 2026-04-25 03:42 | 33.94365 | -118.41237 | 94 ft | 26 kts | 352° |
| 2026-04-25 03:42 | 33.94556 | -118.41264 | 93 ft | 29 kts | 353° |
| 2026-04-25 03:43 | 33.94615 | -118.41273 | 95 ft | 0 kts | 353° |
| 2026-04-25 03:43 | 33.94622 | -118.41274 | 93 ft | 5 kts | 353° |
| 2026-04-25 03:43 | 33.94709 | -118.41286 | 93 ft | 18 kts | 353° |
| 2026-04-25 03:43 | 33.94799 | -118.41223 | 94 ft | 18 kts | 81° |
| 2026-04-25 03:44 | 33.94817 | -118.41047 | 95 ft | 25 kts | 83° |
| 2026-04-25 03:44 | 33.94840 | -118.40827 | 95 ft | 28 kts | 83° |
| 2026-04-25 03:44 | 33.94865 | -118.40583 | 94 ft | 31 kts | 83° |
| 2026-04-25 03:44 | 33.94891 | -118.40322 | 95 ft | 28 kts | 83° |
| 2026-04-25 03:45 | 33.94915 | -118.40089 | 93 ft | 29 kts | 83° |
| 2026-04-25 03:45 | 33.94943 | -118.39932 | 93 ft | 10 kts | 50° |
| 2026-04-25 03:45 | 33.94953 | -118.39924 | 95 ft | 0 kts | 32° |
| 2026-04-25 03:48 | 33.94955 | -118.39922 | 94 ft | 2 kts | 30° |
| 2026-04-25 03:48 | 33.95009 | -118.39913 | 94 ft | 12 kts | 353° |
| 2026-04-25 03:48 | 33.95039 | -118.39988 | 94 ft | 12 kts | 261° |
| 2026-04-25 03:49 | 33.95026 | -118.40104 | 96 ft | 18 kts | 263° |
| 2026-04-25 03:49 | 33.94988 | -118.40474 | 98 ft | 79 kts | 263° |
| 2026-04-25 03:49 | 33.94895 | -118.41371 | 100 ft | 136 kts | 263° |
| 2026-04-25 03:49 | 33.94768 | -118.42626 | 435 ft | 152 kts | 262° |
| 2026-04-25 03:50 | 33.94635 | -118.43892 | 1116 ft | 152 kts | 263° |
| 2026-04-25 03:50 | 33.94517 | -118.45169 | 1789 ft | 154 kts | 264° |
| 2026-04-25 03:50 | 33.94397 | -118.46499 | 2255 ft | 171 kts | 264° |
| 2026-04-25 03:50 | 33.94265 | -118.47991 | 2684 ft | 187 kts | 266° |
| 2026-04-25 03:51 | 33.94198 | -118.49640 | 3049 ft | 208 kts | 269° |
| 2026-04-25 03:51 | 33.94151 | -118.51505 | 3382 ft | 237 kts | 267° |
| 2026-04-25 03:51 | 33.94038 | -118.53555 | 3945 ft | 256 kts | 265° |
| 2026-04-25 03:51 | 33.93873 | -118.55753 | 4696 ft | 265 kts | 264° |
| 2026-04-25 03:52 | 33.93694 | -118.57972 | 4932 ft | 267 kts | 264° |
| 2026-04-25 03:52 | 33.93514 | -118.60167 | 4998 ft | 265 kts | 264° |
| 2026-04-25 03:52 | 33.93335 | -118.62372 | 5006 ft | 264 kts | 264° |
| 2026-04-25 03:52 | 33.93156 | -118.64584 | 5010 ft | 265 kts | 264° |
| 2026-04-25 03:53 | 33.92981 | -118.66794 | 5016 ft | 266 kts | 264° |
| 2026-04-25 03:53 | 33.92807 | -118.69012 | 5013 ft | 266 kts | 265° |
| 2026-04-25 03:53 | 33.92636 | -118.71213 | 5014 ft | 265 kts | 264° |
| 2026-04-25 03:53 | 33.92464 | -118.73428 | 5009 ft | 265 kts | 265° |
| 2026-04-25 03:54 | 33.92291 | -118.75643 | 5010 ft | 264 kts | 264° |
| 2026-04-25 03:54 | 33.92118 | -118.77851 | 5012 ft | 264 kts | 264° |
| 2026-04-25 03:54 | 33.91944 | -118.80059 | 5015 ft | 265 kts | 264° |
| 2026-04-25 03:54 | 33.91770 | -118.82274 | 5055 ft | 268 kts | 264° |
| 2026-04-25 03:55 | 33.91741 | -118.84516 | 5889 ft | 271 kts | 273° |
| 2026-04-25 03:55 | 33.91823 | -118.86793 | 6932 ft | 272 kts | 272° |
| 2026-04-25 03:55 | 33.91891 | -118.89080 | 7881 ft | 274 kts | 271° |
| 2026-04-25 03:55 | 33.91954 | -118.91381 | 8830 ft | 276 kts | 271° |
| 2026-04-25 03:56 | 33.92016 | -118.93673 | 9763 ft | 278 kts | 271° |
| 2026-04-25 03:56 | 33.92080 | -118.96029 | 10431 ft | 289 kts | 271° |
| 2026-04-25 03:56 | 33.92161 | -118.98541 | 10720 ft | 311 kts | 274° |
| 2026-04-25 03:56 | 33.92548 | -119.01150 | 11311 ft | 321 kts | 284° |
| 2026-04-25 03:57 | 33.93349 | -119.03681 | 12108 ft | 325 kts | 294° |
| 2026-04-25 03:57 | 33.94503 | -119.06045 | 12945 ft | 328 kts | 299° |
| 2026-04-25 03:57 | 33.95716 | -119.08382 | 13778 ft | 329 kts | 298° |
| 2026-04-25 03:57 | 33.96918 | -119.10708 | 14485 ft | 331 kts | 298° |
| 2026-04-25 03:58 | 33.98136 | -119.13075 | 15169 ft | 333 kts | 298° |
| 2026-04-25 03:58 | 33.99364 | -119.15461 | 15842 ft | 336 kts | 298° |
| 2026-04-25 03:58 | 34.00723 | -119.17778 | 16505 ft | 342 kts | 306° |
| 2026-04-25 03:58 | 34.02408 | -119.19803 | 17191 ft | 350 kts | 315° |
| 2026-04-25 03:59 | 34.04391 | -119.21564 | 17867 ft | 355 kts | 319° |
| 2026-04-25 03:59 | 34.06403 | -119.23282 | 18514 ft | 358 kts | 319° |
| 2026-04-25 03:59 | 34.08445 | -119.25028 | 19116 ft | 360 kts | 319° |
| 2026-04-25 03:59 | 34.10496 | -119.26791 | 19694 ft | 364 kts | 319° |
| 2026-04-25 04:00 | 34.12575 | -119.28584 | 20313 ft | 367 kts | 319° |
| 2026-04-25 04:00 | 34.14666 | -119.30385 | 20925 ft | 370 kts | 319° |
| 2026-04-25 04:00 | 34.16740 | -119.32171 | 21522 ft | 372 kts | 319° |
| 2026-04-25 04:00 | 34.18859 | -119.33999 | 22111 ft | 375 kts | 319° |
| 2026-04-25 04:01 | 34.21002 | -119.35851 | 22726 ft | 378 kts | 319° |
| 2026-04-25 04:01 | 34.23121 | -119.37681 | 23361 ft | 378 kts | 319° |
| 2026-04-25 04:01 | 34.25273 | -119.39536 | 23876 ft | 380 kts | 319° |
| 2026-04-25 04:01 | 34.27441 | -119.41407 | 24349 ft | 383 kts | 319° |
| 2026-04-25 04:02 | 34.29616 | -119.43287 | 24807 ft | 385 kts | 318° |
| 2026-04-25 04:02 | 34.31801 | -119.45178 | 25255 ft | 388 kts | 318° |
| 2026-04-25 04:02 | 34.34003 | -119.47085 | 25691 ft | 390 kts | 318° |
| 2026-04-25 04:02 | 34.36215 | -119.49003 | 26111 ft | 392 kts | 318° |
| 2026-04-25 04:03 | 34.38412 | -119.50912 | 26535 ft | 395 kts | 318° |
| 2026-04-25 04:03 | 34.40635 | -119.52890 | 26979 ft | 394 kts | 315° |
| 2026-04-25 04:03 | 34.42648 | -119.55125 | 27398 ft | 392 kts | 309° |
| 2026-04-25 04:03 | 34.44573 | -119.57486 | 27805 ft | 395 kts | 309° |
| 2026-04-25 04:04 | 34.46504 | -119.59853 | 28399 ft | 393 kts | 309° |
| 2026-04-25 04:04 | 34.48401 | -119.62180 | 28952 ft | 391 kts | 309° |
| 2026-04-25 04:04 | 34.50323 | -119.64546 | 29369 ft | 395 kts | 308° |
| 2026-04-25 04:04 | 34.52269 | -119.66956 | 29657 ft | 402 kts | 308° |
| 2026-04-25 04:05 | 34.54238 | -119.69395 | 30031 ft | 405 kts | 308° |
| 2026-04-25 04:05 | 34.56196 | -119.71814 | 30377 ft | 408 kts | 308° |
| 2026-04-25 04:05 | 34.58196 | -119.74280 | 30731 ft | 410 kts | 308° |
| 2026-04-25 04:05 | 34.60203 | -119.76757 | 31091 ft | 412 kts | 308° |
| 2026-04-25 04:06 | 34.62220 | -119.79248 | 31413 ft | 414 kts | 308° |
| 2026-04-25 04:06 | 34.64246 | -119.81751 | 31749 ft | 415 kts | 307° |
| 2026-04-25 04:06 | 34.66270 | -119.84250 | 32218 ft | 414 kts | 307° |
| 2026-04-25 04:06 | 34.68294 | -119.86747 | 32695 ft | 413 kts | 307° |
| 2026-04-25 04:07 | 34.70279 | -119.89207 | 33187 ft | 412 kts | 306° |
| 2026-04-25 04:07 | 34.72281 | -119.91688 | 33723 ft | 410 kts | 306° |
| 2026-04-25 04:07 | 34.74268 | -119.94154 | 34179 ft | 407 kts | 306° |
| 2026-04-25 04:07 | 34.76247 | -119.96616 | 34653 ft | 404 kts | 306° |
| 2026-04-25 04:08 | 34.78211 | -119.99060 | 35049 ft | 401 kts | 305° |
| 2026-04-25 04:08 | 34.80161 | -120.01487 | 35415 ft | 400 kts | 305° |
| 2026-04-25 04:08 | 34.82083 | -120.03877 | 35791 ft | 397 kts | 305° |
| 2026-04-25 04:08 | 34.84020 | -120.06291 | 35960 ft | 398 kts | 306° |
| 2026-04-25 04:09 | 34.87873 | -120.11086 | 35992 ft | 393 kts | 305° |
| 2026-04-25 04:09 | 34.91684 | -120.15837 | 36002 ft | 393 kts | 305° |
| 2026-04-25 04:10 | 34.95499 | -120.20621 | 36010 ft | 393 kts | 305° |
| 2026-04-25 04:10 | 34.99291 | -120.25382 | 35992 ft | 393 kts | 305° |
| 2026-04-25 04:11 | 35.05009 | -120.32566 | 36007 ft | 394 kts | 305° |
| 2026-04-25 04:12 | 35.08827 | -120.37355 | 36029 ft | 394 kts | 306° |
| 2026-04-25 04:12 | 35.12825 | -120.42009 | 36022 ft | 398 kts | 308° |
| 2026-04-25 04:13 | 35.16968 | -120.46540 | 36029 ft | 399 kts | 309° |
| 2026-04-25 04:13 | 35.21085 | -120.51062 | 36008 ft | 399 kts | 308° |
| 2026-04-25 04:14 | 35.24504 | -120.54879 | 36034 ft | 398 kts | 309° |
| 2026-04-25 04:14 | 35.28587 | -120.59476 | 36025 ft | 399 kts | 309° |
| 2026-04-25 04:15 | 35.32649 | -120.64064 | 36022 ft | 399 kts | 308° |
| 2026-04-25 04:15 | 35.36736 | -120.68685 | 36019 ft | 399 kts | 309° |
| 2026-04-25 04:16 | 35.40824 | -120.73298 | 36035 ft | 399 kts | 309° |
| 2026-04-25 04:16 | 35.44891 | -120.77898 | 36024 ft | 398 kts | 309° |
| 2026-04-25 04:17 | 35.49037 | -120.82465 | 36017 ft | 404 kts | 314° |
| 2026-04-25 04:17 | 35.53588 | -120.86514 | 36012 ft | 407 kts | 316° |
| 2026-04-25 04:18 | 35.58260 | -120.90465 | 36034 ft | 407 kts | 317° |
| 2026-04-25 04:18 | 35.62927 | -120.94413 | 36013 ft | 407 kts | 317° |
| 2026-04-25 04:19 | 35.67564 | -120.98388 | 36003 ft | 406 kts | 316° |
| 2026-04-25 04:19 | 35.72171 | -121.02364 | 35997 ft | 406 kts | 316° |
| 2026-04-25 04:20 | 35.76809 | -121.06380 | 36014 ft | 407 kts | 316° |
| 2026-04-25 04:20 | 35.81418 | -121.10366 | 36007 ft | 407 kts | 316° |
| 2026-04-25 04:21 | 35.86061 | -121.14378 | 36004 ft | 406 kts | 316° |
| 2026-04-25 04:21 | 35.90693 | -121.18391 | 35996 ft | 406 kts | 316° |
| 2026-04-25 04:21 | 35.92979 | -121.20373 | 35893 ft | 408 kts | 316° |
| 2026-04-25 04:22 | 35.95317 | -121.22404 | 35305 ft | 408 kts | 317° |
| 2026-04-25 04:22 | 35.97629 | -121.24408 | 34860 ft | 404 kts | 317° |
| 2026-04-25 04:22 | 35.99922 | -121.26398 | 34399 ft | 401 kts | 317° |
| 2026-04-25 04:22 | 36.02203 | -121.28384 | 33924 ft | 398 kts | 317° |
| 2026-04-25 04:23 | 36.04432 | -121.30331 | 33433 ft | 395 kts | 317° |
| 2026-04-25 04:23 | 36.06661 | -121.32278 | 32989 ft | 390 kts | 317° |
| 2026-04-25 04:23 | 36.08866 | -121.34203 | 32553 ft | 386 kts | 317° |
| 2026-04-25 04:23 | 36.11057 | -121.36111 | 32070 ft | 383 kts | 317° |
| 2026-04-25 04:24 | 36.13223 | -121.38002 | 31625 ft | 379 kts | 317° |
| 2026-04-25 04:24 | 36.15375 | -121.39883 | 31182 ft | 377 kts | 317° |
| 2026-04-25 04:24 | 36.17481 | -121.41726 | 30736 ft | 373 kts | 317° |
| 2026-04-25 04:24 | 36.19600 | -121.43577 | 30304 ft | 370 kts | 317° |
| 2026-04-25 04:25 | 36.21707 | -121.45415 | 29830 ft | 369 kts | 317° |
| 2026-04-25 04:25 | 36.23797 | -121.47238 | 29401 ft | 365 kts | 317° |
| 2026-04-25 04:25 | 36.25864 | -121.49051 | 28968 ft | 361 kts | 317° |
| 2026-04-25 04:25 | 36.27892 | -121.50836 | 28572 ft | 355 kts | 317° |
| 2026-04-25 04:26 | 36.29878 | -121.52583 | 28171 ft | 354 kts | 317° |
| 2026-04-25 04:26 | 36.31880 | -121.54343 | 27782 ft | 352 kts | 317° |
| 2026-04-25 04:26 | 36.33877 | -121.56100 | 27397 ft | 349 kts | 317° |
| 2026-04-25 04:26 | 36.35857 | -121.57845 | 27016 ft | 348 kts | 317° |
| 2026-04-25 04:27 | 36.37827 | -121.59584 | 26629 ft | 346 kts | 317° |
| 2026-04-25 04:27 | 36.39783 | -121.61310 | 26271 ft | 343 kts | 318° |
| 2026-04-25 04:27 | 36.41731 | -121.63024 | 25912 ft | 341 kts | 318° |
| 2026-04-25 04:27 | 36.43637 | -121.64700 | 25565 ft | 339 kts | 318° |
| 2026-04-25 04:28 | 36.45558 | -121.66390 | 25183 ft | 336 kts | 318° |
| 2026-04-25 04:28 | 36.47465 | -121.68074 | 24806 ft | 334 kts | 319° |
| 2026-04-25 04:28 | 36.49360 | -121.69751 | 24395 ft | 333 kts | 319° |
| 2026-04-25 04:28 | 36.51271 | -121.71380 | 24002 ft | 333 kts | 321° |
| 2026-04-25 04:29 | 36.53207 | -121.72976 | 23613 ft | 337 kts | 321° |
| 2026-04-25 04:29 | 36.55173 | -121.74586 | 23103 ft | 345 kts | 322° |
| 2026-04-25 04:29 | 36.57195 | -121.76184 | 22634 ft | 343 kts | 323° |
| 2026-04-25 04:29 | 36.59211 | -121.77748 | 22227 ft | 340 kts | 323° |
| 2026-04-25 04:30 | 36.61218 | -121.79295 | 21798 ft | 337 kts | 324° |
| 2026-04-25 04:30 | 36.63206 | -121.80829 | 21379 ft | 335 kts | 324° |
| 2026-04-25 04:30 | 36.65179 | -121.82361 | 20962 ft | 333 kts | 324° |
| 2026-04-25 04:30 | 36.67136 | -121.83893 | 20542 ft | 332 kts | 324° |
| 2026-04-25 04:31 | 36.69087 | -121.85427 | 20122 ft | 330 kts | 324° |
| 2026-04-25 04:31 | 36.71008 | -121.86941 | 19707 ft | 329 kts | 324° |
| 2026-04-25 04:31 | 36.72950 | -121.88452 | 19294 ft | 329 kts | 327° |
| 2026-04-25 04:31 | 36.75051 | -121.89610 | 18858 ft | 333 kts | 339° |
| 2026-04-25 04:32 | 36.77327 | -121.90308 | 18362 ft | 339 kts | 345° |
| 2026-04-25 04:32 | 36.79639 | -121.90945 | 17840 ft | 339 kts | 345° |
| 2026-04-25 04:32 | 36.81937 | -121.91586 | 17347 ft | 338 kts | 345° |
| 2026-04-25 04:32 | 36.84238 | -121.92230 | 16860 ft | 337 kts | 345° |
| 2026-04-25 04:33 | 36.86528 | -121.92869 | 16377 ft | 336 kts | 346° |
| 2026-04-25 04:33 | 36.88808 | -121.93507 | 15942 ft | 334 kts | 346° |
| 2026-04-25 04:33 | 36.91046 | -121.94134 | 15558 ft | 330 kts | 346° |
| 2026-04-25 04:33 | 36.93276 | -121.94759 | 15159 ft | 327 kts | 347° |
| 2026-04-25 04:34 | 36.95496 | -121.95397 | 14713 ft | 326 kts | 346° |
| 2026-04-25 04:34 | 36.97679 | -121.96152 | 14298 ft | 325 kts | 344° |
| 2026-04-25 04:34 | 36.99812 | -121.96982 | 13896 ft | 323 kts | 343° |
| 2026-04-25 04:34 | 37.01944 | -121.97848 | 13457 ft | 321 kts | 343° |
| 2026-04-25 04:35 | 37.04068 | -121.98716 | 13012 ft | 320 kts | 343° |
| 2026-04-25 04:35 | 37.06169 | -121.99566 | 12314 ft | 315 kts | 343° |
| 2026-04-25 04:35 | 37.08235 | -122.00391 | 11785 ft | 304 kts | 343° |
| 2026-04-25 04:35 | 37.10176 | -122.01159 | 11655 ft | 282 kts | 343° |
| 2026-04-25 04:36 | 37.12011 | -122.01880 | 11285 ft | 272 kts | 343° |
| 2026-04-25 04:36 | 37.13817 | -122.02582 | 10774 ft | 269 kts | 343° |
| 2026-04-25 04:36 | 37.15576 | -122.03265 | 10268 ft | 267 kts | 342° |
| 2026-04-25 04:36 | 37.17366 | -122.03862 | 9805 ft | 265 kts | 350° |
| 2026-04-25 04:37 | 37.19199 | -122.03782 | 9283 ft | 267 kts | 9° |
| 2026-04-25 04:37 | 37.21018 | -122.03291 | 8943 ft | 267 kts | 12° |
| 2026-04-25 04:37 | 37.22824 | -122.02760 | 8643 ft | 266 kts | 12° |
| 2026-04-25 04:37 | 37.24624 | -122.02221 | 8323 ft | 265 kts | 13° |
| 2026-04-25 04:38 | 37.26418 | -122.01683 | 8029 ft | 265 kts | 12° |
| 2026-04-25 04:38 | 37.28185 | -122.01145 | 7781 ft | 262 kts | 12° |
| 2026-04-25 04:38 | 37.29929 | -122.00616 | 7657 ft | 254 kts | 12° |
| 2026-04-25 04:38 | 37.31619 | -122.00098 | 7528 ft | 245 kts | 12° |
| 2026-04-25 04:39 | 37.33270 | -121.99593 | 7280 ft | 241 kts | 12° |
| 2026-04-25 04:39 | 37.34896 | -121.99093 | 7018 ft | 240 kts | 12° |
| 2026-04-25 04:39 | 37.36500 | -121.98613 | 6692 ft | 239 kts | 9° |
| 2026-04-25 04:39 | 37.38150 | -121.98368 | 6396 ft | 238 kts | 4° |
| 2026-04-25 04:40 | 37.39804 | -121.98214 | 6080 ft | 237 kts | 2° |
| 2026-04-25 04:40 | 37.41434 | -121.98071 | 6012 ft | 235 kts | 2° |
| 2026-04-25 04:40 | 37.43035 | -121.97981 | 6012 ft | 226 kts | 353° |
| 2026-04-25 04:40 | 37.44554 | -121.98437 | 6018 ft | 223 kts | 333° |
| 2026-04-25 04:41 | 37.45827 | -121.99508 | 6017 ft | 220 kts | 313° |
| 2026-04-25 04:41 | 37.46715 | -122.01048 | 6020 ft | 217 kts | 295° |
| 2026-04-25 04:41 | 37.47431 | -122.02738 | 5875 ft | 222 kts | 295° |
| 2026-04-25 04:41 | 37.48158 | -122.04454 | 5566 ft | 221 kts | 295° |
| 2026-04-25 04:42 | 37.48881 | -122.06159 | 5268 ft | 220 kts | 294° |
| 2026-04-25 04:42 | 37.49591 | -122.07832 | 4988 ft | 218 kts | 296° |
| 2026-04-25 04:42 | 37.50297 | -122.09497 | 4699 ft | 210 kts | 295° |
| 2026-04-25 04:42 | 37.50973 | -122.11094 | 4414 ft | 202 kts | 296° |
| 2026-04-25 04:43 | 37.51619 | -122.12619 | 4158 ft | 198 kts | 294° |
| 2026-04-25 04:43 | 37.52265 | -122.14148 | 3889 ft | 197 kts | 295° |
| 2026-04-25 04:43 | 37.52907 | -122.15668 | 3626 ft | 195 kts | 294° |
| 2026-04-25 04:43 | 37.53544 | -122.17174 | 3375 ft | 194 kts | 294° |
| 2026-04-25 04:44 | 37.54176 | -122.18672 | 3134 ft | 192 kts | 295° |
| 2026-04-25 04:44 | 37.54797 | -122.20141 | 2868 ft | 187 kts | 295° |
| 2026-04-25 04:44 | 37.55382 | -122.21526 | 2600 ft | 175 kts | 295° |
| 2026-04-25 04:44 | 37.55933 | -122.22831 | 2379 ft | 160 kts | 294° |
| 2026-04-25 04:45 | 37.56429 | -122.24006 | 2163 ft | 145 kts | 294° |
| 2026-04-25 04:45 | 37.56878 | -122.25071 | 1985 ft | 132 kts | 294° |
| 2026-04-25 04:45 | 37.57300 | -122.26073 | 1800 ft | 129 kts | 293° |
| 2026-04-25 04:45 | 37.57715 | -122.27064 | 1635 ft | 127 kts | 293° |
| 2026-04-25 04:46 | 37.58122 | -122.28048 | 1447 ft | 127 kts | 294° |
| 2026-04-25 04:46 | 37.58536 | -122.29022 | 1282 ft | 126 kts | 295° |
| 2026-04-25 04:46 | 37.58948 | -122.29997 | 1097 ft | 126 kts | 295° |
| 2026-04-25 04:46 | 37.59349 | -122.30967 | 924 ft | 125 kts | 296° |
| 2026-04-25 04:47 | 37.59763 | -122.31938 | 776 ft | 125 kts | 296° |
| 2026-04-25 04:47 | 37.60173 | -122.32912 | 620 ft | 126 kts | 296° |
| 2026-04-25 04:47 | 37.60584 | -122.33884 | 432 ft | 125 kts | 296° |
| 2026-04-25 04:47 | 37.60988 | -122.34854 | 246 ft | 124 kts | 296° |
| 2026-04-25 04:48 | 37.61386 | -122.35803 | 69 ft | 124 kts | 296° |
| 2026-04-25 04:48 | 37.61754 | -122.36688 | 22 ft | 95 kts | 298° |
| 2026-04-25 04:48 | 37.61985 | -122.37239 | 22 ft | 56 kts | 298° |
| 2026-04-25 04:48 | 37.62135 | -122.37589 | 23 ft | 24 kts | 297° |
| 2026-04-25 04:49 | 37.62197 | -122.37753 | 22 ft | 18 kts | 290° |
| 2026-04-25 04:49 | 37.62224 | -122.37898 | 22 ft | 14 kts | 276° |
| 2026-04-25 04:49 | 37.62227 | -122.38030 | 23 ft | 17 kts | 268° |
| 2026-04-25 04:49 | 37.62220 | -122.38136 | 22 ft | 7 kts | 252° |
| 2026-04-25 04:50 | 37.62171 | -122.38202 | 22 ft | 14 kts | 213° |